Time;durP1;ratioP1;P1;durP2;ratioP2;P2;SDS_P1;SDS_P2;PMS_P1;PMS_P2;Temp;Humidity;BMP_temperature;BMP_pressure;BME280_temperature;BME280_humidity;BME280_pressure;Samples;Min_cycle;Max_cycle;Signal;HPM_P1;HPM_P2
2022/07/28 00:02:03;;;;;;;11.43;5.65;;;;;;;;;;5055670;28;20107;-79
2022/07/28 00:04:29;;;;;;;12.25;5.80;;;;;;;;;;5052847;28;20044;-79
2022/07/28 00:06:54;;;;;;;8.50;5.38;;;;;;;;;;5046650;28;20174;-78
2022/07/28 00:09:20;;;;;;;9.05;5.07;;;;;;;;;;5019384;28;20059;-79
2022/07/28 00:11:45;;;;;;;14.40;5.10;;;;;;;;;;5021837;28;20449;-78
2022/07/28 00:14:10;;;;;;;9.45;6.05;;;;;;;;;;5006667;28;20062;-79
2022/07/28 00:16:36;;;;;;;9.55;5.82;;;;;;;;;;5024257;28;20028;-79
2022/07/28 00:19:01;;;;;;;15.82;6.63;;;;;;;;;;5013549;28;20047;-79
2022/07/28 00:21:26;;;;;;;9.93;5.95;;;;;;;;;;5014667;28;20090;-78
2022/07/28 00:23:52;;;;;;;11.18;6.60;;;;;;;;;;5013349;28;20091;-78
2022/07/28 00:26:17;;;;;;;15.45;6.97;;;;;;;;;;5030047;28;20089;-79
2022/07/28 00:28:43;;;;;;;15.70;6.57;;;;;;;;;;5043810;28;20495;-78
2022/07/28 00:31:08;;;;;;;11.18;5.88;;;;;;;;;;5055435;28;20071;-79
2022/07/28 00:33:33;;;;;;;12.93;7.13;;;;;;;;;;5058643;28;20024;-79
2022/07/28 00:35:59;;;;;;;13.43;6.72;;;;;;;;;;5056963;28;20039;-80
2022/07/28 00:38:24;;;;;;;9.63;5.93;;;;;;;;;;5031492;28;20120;-79
2022/07/28 00:43:33;;;;;;;15.18;8.07;;;;;;;;;;5064701;28;20101;-79
2022/07/28 00:45:58;;;;;;;15.40;6.72;;;;;;;;;;5061622;28;20033;-79
2022/07/28 00:48:24;;;;;;;13.73;6.95;;;;;;;;;;5050773;28;20033;-79
2022/07/28 00:50:49;;;;;;;13.75;6.90;;;;;;;;;;5055721;28;20523;-79
2022/07/28 00:53:14;;;;;;;15.30;6.97;;;;;;;;;;5016467;28;20033;-79
2022/07/28 00:55:40;;;;;;;13.02;7.85;;;;;;;;;;5008320;28;20052;-79
2022/07/28 00:58:06;;;;;;;10.63;6.32;;;;;;;;;;5051989;28;20224;-80
2022/07/28 01:00:34;;;;;;;15.73;6.30;;;;;;;;;;5032185;28;20045;-78
2022/07/28 01:02:59;;;;;;;15.00;6.38;;;;;;;;;;5052240;28;20059;-79
2022/07/28 01:05:32;;;;;;;12.00;6.68;;;;;;;;;;5024093;28;20048;-79
2022/07/28 01:08:09;;;;;;;11.88;6.25;;;;;;;;;;5017761;28;20028;-78
2022/07/28 01:10:45;;;;;;;9.32;5.90;;;;;;;;;;5025106;28;20036;-79
2022/07/28 01:13:41;;;;;;;16.15;7.05;;;;;;;;;;5030385;28;20029;-78
2022/07/28 01:16:07;;;;;;;17.50;6.95;;;;;;;;;;5052013;28;20032;-79
2022/07/28 01:19:03;;;;;;;11.82;7.03;;;;;;;;;;5040567;28;20028;-78
2022/07/28 01:21:34;;;;;;;18.33;7.20;;;;;;;;;;5044387;28;20112;-78
2022/07/28 01:24:20;;;;;;;14.35;6.90;;;;;;;;;;5036248;28;20131;-80
2022/07/28 01:26:52;;;;;;;14.30;6.75;;;;;;;;;;5057697;28;20071;-79
2022/07/28 01:29:30;;;;;;;15.88;7.35;;;;;;;;;;5049703;28;20037;-78
2022/07/28 01:32:00;;;;;;;12.98;6.78;;;;;;;;;;5041224;28;20055;-78
2022/07/28 01:34:31;;;;;;;12.30;6.78;;;;;;;;;;5038302;28;20033;-78
2022/07/28 01:37:05;;;;;;;11.30;6.97;;;;;;;;;;5035679;28;20524;-78
2022/07/28 01:39:31;;;;;;;12.98;7.18;;;;;;;;;;5037556;28;20108;-78
2022/07/28 01:41:57;;;;;;;15.27;6.88;;;;;;;;;;4998095;28;20519;-79
2022/07/28 01:44:22;;;;;;;10.23;6.75;;;;;;;;;;5043316;28;20040;-78
2022/07/28 01:46:48;;;;;;;12.75;7.57;;;;;;;;;;5045619;28;20104;-78
2022/07/28 01:49:14;;;;;;;12.40;7.20;;;;;;;;;;5010575;28;20047;-79
2022/07/28 01:51:39;;;;;;;14.82;7.85;;;;;;;;;;5023165;28;20032;-81
2022/07/28 01:54:05;;;;;;;11.48;6.93;;;;;;;;;;5038200;28;20128;-79
2022/07/28 01:56:31;;;;;;;12.23;7.13;;;;;;;;;;4998697;28;20082;-78
2022/07/28 01:58:57;;;;;;;12.95;6.63;;;;;;;;;;5034473;28;20139;-79
2022/07/28 02:01:23;;;;;;;14.75;6.97;;;;;;;;;;5057388;28;20040;-79
2022/07/28 02:03:48;;;;;;;10.95;7.13;;;;;;;;;;5021650;28;20040;-78
2022/07/28 02:06:13;;;;;;;15.63;7.78;;;;;;;;;;5050118;28;20465;-78
2022/07/28 02:08:39;;;;;;;15.82;7.65;;;;;;;;;;5031634;28;20032;-79
2022/07/28 02:13:48;;;;;;;11.15;7.65;;;;;;;;;;5030342;28;20025;-79
2022/07/28 02:16:14;;;;;;;13.98;8.15;;;;;;;;;;5028404;28;20203;-78
2022/07/28 02:18:39;;;;;;;11.48;7.05;;;;;;;;;;5021297;28;20393;-78
2022/07/28 02:21:05;;;;;;;18.10;8.07;;;;;;;;;;5032249;28;20052;-79
2022/07/28 02:23:33;;;;;;;13.35;8.00;;;;;;;;;;5032435;28;20021;-79
2022/07/28 02:25:59;;;;;;;17.75;9.40;;;;;;;;;;5058040;28;20032;-80
2022/07/28 02:28:27;;;;;;;14.77;8.48;;;;;;;;;;5039764;28;20025;-79
2022/07/28 02:31:07;;;;;;;16.58;7.93;;;;;;;;;;5041956;28;20166;-79
2022/07/28 02:33:33;;;;;;;15.45;7.93;;;;;;;;;;5023531;28;20104;-78
2022/07/28 02:36:03;;;;;;;15.68;8.07;;;;;;;;;;5040984;28;20760;-79
2022/07/28 02:38:30;;;;;;;10.68;7.97;;;;;;;;;;5036787;28;20040;-78
2022/07/28 02:40:59;;;;;;;17.17;8.68;;;;;;;;;;5030911;28;20482;-79
2022/07/28 02:43:29;;;;;;;19.58;8.30;;;;;;;;;;5034461;28;20024;-79
2022/07/28 02:45:55;;;;;;;15.07;8.90;;;;;;;;;;5035973;28;20040;-79
2022/07/28 02:48:23;;;;;;;14.15;8.98;;;;;;;;;;5016935;28;20045;-78
2022/07/28 02:50:49;;;;;;;15.40;8.40;;;;;;;;;;5046574;28;20033;-79
2022/07/28 02:53:14;;;;;;;14.93;7.45;;;;;;;;;;5039398;28;20063;-79
2022/07/28 02:55:39;;;;;;;15.13;8.30;;;;;;;;;;5033204;28;20527;-79
2022/07/28 02:58:06;;;;;;;14.75;8.57;;;;;;;;;;5035175;28;20055;-80
2022/07/28 03:00:32;;;;;;;13.75;7.47;;;;;;;;;;5008374;28;20041;-78
2022/07/28 03:02:57;;;;;;;10.30;7.53;;;;;;;;;;5006513;28;20126;-80
2022/07/28 03:05:23;;;;;;;11.60;7.20;;;;;;;;;;5016459;28;20041;-79
2022/07/28 03:07:51;;;;;;;12.70;8.25;;;;;;;;;;5025309;28;20429;-79
2022/07/28 03:10:26;;;;;;;14.98;8.32;;;;;;;;;;5021512;28;20500;-79
2022/07/28 03:12:52;;;;;;;21.17;8.30;;;;;;;;;;5026016;28;20049;-79
2022/07/28 03:15:18;;;;;;;18.45;8.32;;;;;;;;;;5010072;28;20080;-78
2022/07/28 03:17:43;;;;;;;15.57;7.75;;;;;;;;;;4995329;28;20499;-78
2022/07/28 03:20:09;;;;;;;13.43;8.27;;;;;;;;;;5044558;28;20060;-77
2022/07/28 03:22:35;;;;;;;15.35;8.85;;;;;;;;;;5043619;28;20037;-78
2022/07/28 03:25:00;;;;;;;17.67;8.52;;;;;;;;;;5000583;28;20040;-78
2022/07/28 03:27:27;;;;;;;18.70;8.65;;;;;;;;;;5028914;28;20033;-78
2022/07/28 03:29:56;;;;;;;12.60;8.27;;;;;;;;;;5011544;28;20033;-78
2022/07/28 03:32:22;;;;;;;14.77;8.20;;;;;;;;;;5008848;28;20028;-79
2022/07/28 03:34:47;;;;;;;16.98;9.00;;;;;;;;;;5009410;28;20592;-78
2022/07/28 03:37:14;;;;;;;20.55;9.90;;;;;;;;;;5008803;28;20485;-76
2022/07/28 03:39:45;;;;;;;12.02;8.13;;;;;;;;;;5017672;28;20029;-78
2022/07/28 03:42:11;;;;;;;14.27;9.18;;;;;;;;;;5026792;28;20030;-78
2022/07/28 03:44:38;;;;;;;17.77;9.60;;;;;;;;;;5024692;28;20352;-78
2022/07/28 03:47:03;;;;;;;20.15;9.52;;;;;;;;;;5026943;28;20028;-78
2022/07/28 03:49:29;;;;;;;18.13;9.70;;;;;;;;;;5043569;28;20457;-78
2022/07/28 03:51:54;;;;;;;24.48;10.95;;;;;;;;;;5014574;28;20034;-78
2022/07/28 03:54:19;;;;;;;16.08;9.77;;;;;;;;;;5033725;28;20129;-78
2022/07/28 03:56:45;;;;;;;20.20;11.05;;;;;;;;;;5021386;28;20524;-78
2022/07/28 03:59:10;;;;;;;17.88;10.23;;;;;;;;;;5048056;28;20103;-78
2022/07/28 04:01:35;;;;;;;22.73;10.50;;;;;;;;;;5030645;28;20121;-78
2022/07/28 04:04:01;;;;;;;17.63;10.82;;;;;;;;;;5028689;28;20095;-78
2022/07/28 04:06:27;;;;;;;16.77;10.15;;;;;;;;;;5040104;28;20100;-78
2022/07/28 04:08:52;;;;;;;20.92;10.35;;;;;;;;;;5053814;28;20452;-78
2022/07/28 04:11:17;;;;;;;16.23;10.50;;;;;;;;;;5028134;28;20034;-79
2022/07/28 04:13:43;;;;;;;17.83;10.00;;;;;;;;;;5015281;28;20032;-78
2022/07/28 04:16:08;;;;;;;16.55;9.77;;;;;;;;;;5037295;28;20033;-78
2022/07/28 04:18:34;;;;;;;19.80;11.35;;;;;;;;;;5049222;28;20037;-78
2022/07/28 04:20:59;;;;;;;16.02;10.73;;;;;;;;;;5032134;28;20029;-78
2022/07/28 04:23:24;;;;;;;18.27;10.60;;;;;;;;;;5052770;28;20033;-78
2022/07/28 04:25:50;;;;;;;25.88;11.25;;;;;;;;;;5037390;28;20472;-78
2022/07/28 04:28:15;;;;;;;17.90;10.50;;;;;;;;;;5013052;28;20036;-78
2022/07/28 04:30:40;;;;;;;17.52;10.82;;;;;;;;;;5049259;28;20449;-78
2022/07/28 04:33:06;;;;;;;19.50;11.32;;;;;;;;;;5046895;28;20037;-77
2022/07/28 04:35:35;;;;;;;19.80;12.10;;;;;;;;;;5029326;28;20155;-77
2022/07/28 04:38:00;;;;;;;21.73;12.57;;;;;;;;;;5046820;28;20461;-78
2022/07/28 04:40:26;;;;;;;20.90;11.70;;;;;;;;;;5047583;28;20056;-78
2022/07/28 04:42:51;;;;;;;22.08;12.20;;;;;;;;;;5030663;28;20025;-78
2022/07/28 04:45:17;;;;;;;21.05;11.60;;;;;;;;;;5030745;28;20049;-78
2022/07/28 04:47:42;;;;;;;20.80;11.82;;;;;;;;;;5031234;28;20318;-78
2022/07/28 04:50:08;;;;;;;19.60;11.70;;;;;;;;;;5030964;28;20584;-78
2022/07/28 04:52:34;;;;;;;25.65;13.25;;;;;;;;;;5046815;28;20029;-78
2022/07/28 04:55:03;;;;;;;22.20;12.18;;;;;;;;;;5013993;28;20041;-78
2022/07/28 04:57:28;;;;;;;19.42;12.55;;;;;;;;;;4997911;28;20047;-79
2022/07/28 04:59:55;;;;;;;24.80;13.52;;;;;;;;;;5028806;28;20061;-79
2022/07/28 05:02:21;;;;;;;29.83;12.95;;;;;;;;;;5028630;28;20494;-79
2022/07/28 05:04:47;;;;;;;23.58;13.32;;;;;;;;;;5049722;28;20043;-78
2022/07/28 05:07:12;;;;;;;25.27;13.50;;;;;;;;;;5015081;28;20088;-79
2022/07/28 05:09:37;;;;;;;23.30;14.13;;;;;;;;;;5048427;28;20049;-79
2022/07/28 05:12:04;;;;;;;31.00;14.68;;;;;;;;;;5014272;28;20049;-77
2022/07/28 05:14:32;;;;;;;27.88;14.80;;;;;;;;;;5031744;28;20025;-78
2022/07/28 05:16:58;;;;;;;30.02;15.25;;;;;;;;;;5031167;28;20401;-77
2022/07/28 05:19:23;;;;;;;30.42;16.08;;;;;;;;;;5029390;28;20083;-77
2022/07/28 05:21:49;;;;;;;25.92;15.20;;;;;;;;;;5046218;28;20049;-78
2022/07/28 05:24:14;;;;;;;23.42;14.32;;;;;;;;;;5048864;28;20171;-78
2022/07/28 05:26:39;;;;;;;22.92;14.43;;;;;;;;;;5029523;28;20544;-77
2022/07/28 05:29:05;;;;;;;23.05;13.07;;;;;;;;;;5013357;28;20033;-78
2022/07/28 05:31:30;;;;;;;25.08;11.73;;;;;;;;;;4997236;28;20116;-78
2022/07/28 05:33:56;;;;;;;20.83;10.45;;;;;;;;;;5032440;28;20481;-78
2022/07/28 05:36:21;;;;;;;14.85;9.52;;;;;;;;;;5031014;28;20056;-77
2022/07/28 05:38:46;;;;;;;13.20;8.15;;;;;;;;;;5023199;28;20115;-78
2022/07/28 05:41:12;;;;;;;15.45;8.07;;;;;;;;;;5042318;28;20040;-77
2022/07/28 05:43:38;;;;;;;12.10;6.85;;;;;;;;;;5028683;28;20060;-78
2022/07/28 05:46:04;;;;;;;14.35;5.93;;;;;;;;;;5030837;28;20040;-78
2022/07/28 05:48:32;;;;;;;12.40;5.00;;;;;;;;;;5010479;28;20545;-78
2022/07/28 05:50:58;;;;;;;11.18;4.90;;;;;;;;;;5046799;28;20029;-78
2022/07/28 05:53:23;;;;;;;14.02;4.65;;;;;;;;;;5003598;28;20102;-78
2022/07/28 05:55:49;;;;;;;7.03;3.95;;;;;;;;;;5046515;28;20068;-78
2022/07/28 05:58:14;;;;;;;12.32;4.70;;;;;;;;;;5046081;28;20033;-78
2022/07/28 06:00:40;;;;;;;9.07;4.18;;;;;;;;;;5009244;28;20041;-79
2022/07/28 06:03:06;;;;;;;10.73;3.72;;;;;;;;;;5045988;28;20044;-78
2022/07/28 06:05:36;;;;;;;11.32;3.67;;;;;;;;;;5026207;28;20563;-78
2022/07/28 06:08:03;;;;;;;8.48;3.10;;;;;;;;;;5011994;28;20563;-78
2022/07/28 06:13:13;;;;;;;7.50;3.05;;;;;;;;;;5031077;28;20079;-78
2022/07/28 06:15:38;;;;;;;8.40;3.10;;;;;;;;;;5029851;28;20033;-78
2022/07/28 06:18:04;;;;;;;10.65;3.15;;;;;;;;;;5028324;28;20097;-78
2022/07/28 06:20:32;;;;;;;10.57;2.95;;;;;;;;;;5026070;28;20045;-78
2022/07/28 06:22:58;;;;;;;8.75;3.30;;;;;;;;;;5028633;28;20112;-77
2022/07/28 06:25:25;;;;;;;10.10;3.35;;;;;;;;;;5046207;28;20063;-77
2022/07/28 06:27:52;;;;;;;6.82;2.83;;;;;;;;;;5011264;28;20535;-77
2022/07/28 06:30:17;;;;;;;10.20;3.10;;;;;;;;;;5027702;28;20045;-77
2022/07/28 06:32:43;;;;;;;6.22;2.38;;;;;;;;;;5028163;28;20116;-77
2022/07/28 06:35:08;;;;;;;9.82;2.50;;;;;;;;;;5010431;28;20053;-77
2022/07/28 06:37:34;;;;;;;6.93;2.50;;;;;;;;;;5028547;28;20029;-77
2022/07/28 06:39:59;;;;;;;9.80;2.80;;;;;;;;;;5020078;28;20037;-77
2022/07/28 06:42:25;;;;;;;11.00;2.67;;;;;;;;;;5015887;28;20032;-77
2022/07/28 06:44:50;;;;;;;8.70;2.90;;;;;;;;;;5021608;28;20033;-77
2022/07/28 06:47:16;;;;;;;6.38;2.53;;;;;;;;;;5010101;28;20500;-77
2022/07/28 06:49:42;;;;;;;20.83;3.55;;;;;;;;;;5022779;28;20029;-78
2022/07/28 06:52:07;;;;;;;6.38;2.03;;;;;;;;;;5045162;28;20104;-78
2022/07/28 06:54:32;;;;;;;8.00;2.22;;;;;;;;;;5020849;28;20032;-78
2022/07/28 06:56:58;;;;;;;14.05;3.45;;;;;;;;;;5028698;28;20029;-78
2022/07/28 06:59:23;;;;;;;7.40;3.35;;;;;;;;;;5029124;28;20056;-78
2022/07/28 07:01:49;;;;;;;12.90;4.10;;;;;;;;;;5010666;28;20068;-78
2022/07/28 07:04:14;;;;;;;6.72;3.50;;;;;;;;;;5038525;28;20579;-78
2022/07/28 07:06:39;;;;;;;7.60;3.40;;;;;;;;;;5053819;28;20124;-78
2022/07/28 07:09:05;;;;;;;8.63;3.00;;;;;;;;;;4997085;28;20059;-78
2022/07/28 07:11:30;;;;;;;9.43;3.30;;;;;;;;;;5023214;28;20079;-78
2022/07/28 07:13:55;;;;;;;13.98;2.83;;;;;;;;;;5040016;28;20467;-78
2022/07/28 07:16:21;;;;;;;10.15;2.78;;;;;;;;;;5064659;28;20051;-79
2022/07/28 07:18:49;;;;;;;7.97;2.70;;;;;;;;;;5015717;28;20039;-79
2022/07/28 07:21:14;;;;;;;9.07;2.83;;;;;;;;;;5004309;28;20060;-79
2022/07/28 07:23:40;;;;;;;5.97;2.78;;;;;;;;;;5020220;28;20059;-79
2022/07/28 07:26:05;;;;;;;6.50;2.30;;;;;;;;;;5042232;28;20060;-77
2022/07/28 07:28:32;;;;;;;6.90;2.38;;;;;;;;;;5031196;28;20105;-77
2022/07/28 07:30:57;;;;;;;6.07;2.20;;;;;;;;;;5012047;28;20511;-78
2022/07/28 07:33:23;;;;;;;9.07;1.67;;;;;;;;;;5039567;28;20303;-78
2022/07/28 07:35:48;;;;;;;4.93;1.33;;;;;;;;;;5011403;28;20108;-78
2022/07/28 07:38:13;;;;;;;2.97;1.10;;;;;;;;;;5034656;28;20055;-78
2022/07/28 07:40:41;;;;;;;5.10;1.27;;;;;;;;;;5056556;28;20506;-78
2022/07/28 07:43:07;;;;;;;2.88;0.98;;;;;;;;;;5050387;28;20040;-78
2022/07/28 07:45:33;;;;;;;5.00;1.10;;;;;;;;;;5032305;28;20119;-77
2022/07/28 07:48:00;;;;;;;2.97;0.98;;;;;;;;;;5064322;28;20047;-79
2022/07/28 07:50:25;;;;;;;2.15;0.93;;;;;;;;;;5027529;28;20025;-78
2022/07/28 07:52:50;;;;;;;4.90;1.27;;;;;;;;;;5016857;28;20032;-78
2022/07/28 07:55:16;;;;;;;3.85;1.02;;;;;;;;;;5048189;28;20540;-77
2022/07/28 07:57:42;;;;;;;6.90;1.50;;;;;;;;;;5066603;28;20029;-77
2022/07/28 08:00:08;;;;;;;2.17;0.93;;;;;;;;;;5029547;28;20097;-78
2022/07/28 08:02:33;;;;;;;3.90;0.90;;;;;;;;;;5042778;28;20090;-78
2022/07/28 08:04:59;;;;;;;5.22;1.00;;;;;;;;;;5014724;28;20097;-78
2022/07/28 08:07:25;;;;;;;5.03;1.23;;;;;;;;;;5039552;28;20033;-78
2022/07/28 08:09:50;;;;;;;1.55;0.50;;;;;;;;;;5065920;28;20051;-78
2022/07/28 08:12:15;;;;;;;7.78;1.10;;;;;;;;;;5038762;28;20123;-78
2022/07/28 08:14:41;;;;;;;6.97;1.00;;;;;;;;;;5051845;28;20459;-78
2022/07/28 08:17:06;;;;;;;7.35;1.05;;;;;;;;;;5020009;28;20032;-78
2022/07/28 08:19:34;;;;;;;3.20;0.95;;;;;;;;;;5050792;28;20107;-78
2022/07/28 08:22:01;;;;;;;6.55;1.08;;;;;;;;;;5033234;28;20396;-78
2022/07/28 08:24:26;;;;;;;3.80;0.90;;;;;;;;;;5035201;28;20033;-78
2022/07/28 08:26:51;;;;;;;2.53;0.80;;;;;;;;;;5038094;28;20072;-78
2022/07/28 08:29:17;;;;;;;4.18;0.88;;;;;;;;;;5023597;28;20188;-79
2022/07/28 08:31:42;;;;;;;2.97;0.90;;;;;;;;;;5038365;28;20542;-79
2022/07/28 08:34:08;;;;;;;6.82;1.38;;;;;;;;;;5025053;28;20041;-78
2022/07/28 08:36:33;;;;;;;4.43;0.98;;;;;;;;;;5015807;28;20231;-78
2022/07/28 08:38:58;;;;;;;4.13;1.10;;;;;;;;;;5058926;28;20044;-78
2022/07/28 08:41:27;;;;;;;3.63;0.98;;;;;;;;;;5022985;28;20116;-78
2022/07/28 08:43:53;;;;;;;4.90;1.25;;;;;;;;;;5024937;28;20043;-78
2022/07/28 08:46:19;;;;;;;2.42;0.75;;;;;;;;;;5051218;28;20032;-78
2022/07/28 08:48:45;;;;;;;7.40;1.13;;;;;;;;;;5050162;28;20088;-78
2022/07/28 08:51:10;;;;;;;2.30;0.75;;;;;;;;;;5044653;28;20178;-78
2022/07/28 08:53:36;;;;;;;4.53;1.25;;;;;;;;;;5029144;28;20173;-78
2022/07/28 08:56:03;;;;;;;3.17;0.70;;;;;;;;;;5031107;28;20400;-78
2022/07/28 08:58:30;;;;;;;3.35;0.85;;;;;;;;;;5016888;28;20051;-78
2022/07/28 09:00:56;;;;;;;4.25;0.68;;;;;;;;;;5023893;28;20532;-78
2022/07/28 09:03:21;;;;;;;6.65;1.08;;;;;;;;;;5036513;28;20072;-78
2022/07/28 09:05:48;;;;;;;6.03;0.85;;;;;;;;;;5039025;28;21260;-79
2022/07/28 09:08:14;;;;;;;2.08;0.80;;;;;;;;;;5020713;28;20296;-78
2022/07/28 09:10:39;;;;;;;3.17;0.82;;;;;;;;;;5033718;28;20102;-78
2022/07/28 09:13:04;;;;;;;5.13;1.13;;;;;;;;;;5041623;28;20031;-78
2022/07/28 09:15:36;;;;;;;2.05;0.80;;;;;;;;;;5042101;28;20045;-78
2022/07/28 09:18:04;;;;;;;6.80;1.20;;;;;;;;;;5024311;28;20492;-78
2022/07/28 09:20:29;;;;;;;3.03;0.70;;;;;;;;;;5038098;28;20033;-77
2022/07/28 09:22:56;;;;;;;6.05;1.10;;;;;;;;;;5031923;28;20086;-78
2022/07/28 09:25:22;;;;;;;4.10;0.77;;;;;;;;;;5037346;28;20485;-78
2022/07/28 09:27:47;;;;;;;8.60;1.27;;;;;;;;;;5020942;28;20064;-77
2022/07/28 09:30:12;;;;;;;3.30;1.08;;;;;;;;;;5050763;28;20037;-78
2022/07/28 09:32:38;;;;;;;3.38;1.10;;;;;;;;;;5047592;28;20029;-78
2022/07/28 09:35:03;;;;;;;6.25;1.00;;;;;;;;;;5033337;28;20029;-78
2022/07/28 09:37:29;;;;;;;4.13;1.13;;;;;;;;;;5035457;28;20028;-78
2022/07/28 09:39:58;;;;;;;1.92;0.63;;;;;;;;;;5065130;28;20059;-78
2022/07/28 09:42:23;;;;;;;5.97;1.05;;;;;;;;;;5024500;28;20024;-78
2022/07/28 09:45:02;;;;;;;4.47;1.10;;;;;;;;;;5033757;28;20527;-78
2022/07/28 09:47:31;;;;;;;4.20;0.77;;;;;;;;;;5056791;28;20045;-78
2022/07/28 09:49:57;;;;;;;4.22;1.00;;;;;;;;;;5046756;28;20027;-79
2022/07/28 09:52:29;;;;;;;2.38;0.88;;;;;;;;;;5066181;28;20032;-77
2022/07/28 09:55:13;;;;;;;3.78;0.80;;;;;;;;;;5042329;28;20035;-78
2022/07/28 09:57:38;;;;;;;3.70;0.90;;;;;;;;;;5038802;28;20504;-78
2022/07/28 10:00:10;;;;;;;5.65;0.93;;;;;;;;;;5049403;28;20052;-78
2022/07/28 10:02:35;;;;;;;3.28;0.95;;;;;;;;;;5059819;28;20025;-79
2022/07/28 10:05:01;;;;;;;3.47;0.80;;;;;;;;;;5035838;28;20062;-79
2022/07/28 10:07:30;;;;;;;4.20;0.88;;;;;;;;;;5027859;28;20489;-78
2022/07/28 10:09:59;;;;;;;5.78;1.52;;;;;;;;;;5057732;28;20033;-78
2022/07/28 10:12:26;;;;;;;3.00;1.00;;;;;;;;;;5041927;28;20069;-78
2022/07/28 10:14:55;;;;;;;4.28;0.90;;;;;;;;;;5033535;28;20043;-79
2022/07/28 10:17:30;;;;;;;5.90;1.05;;;;;;;;;;5013500;28;20029;-79
2022/07/28 10:20:00;;;;;;;7.25;1.05;;;;;;;;;;5024169;28;20480;-79
2022/07/28 10:22:31;;;;;;;4.72;1.00;;;;;;;;;;5017881;28;20062;-78
2022/07/28 10:24:57;;;;;;;3.53;0.80;;;;;;;;;;5067454;28;20041;-78
2022/07/28 10:27:24;;;;;;;6.90;0.77;;;;;;;;;;5046502;28;20403;-78
2022/07/28 10:29:56;;;;;;;4.03;1.05;;;;;;;;;;5056255;28;20122;-77
2022/07/28 10:32:22;;;;;;;3.58;0.77;;;;;;;;;;5040386;28;20025;-78
2022/07/28 10:34:49;;;;;;;4.00;0.98;;;;;;;;;;5043262;28;20025;-78
2022/07/28 10:37:20;;;;;;;3.70;1.10;;;;;;;;;;5030123;28;20025;-78
2022/07/28 10:39:55;;;;;;;4.22;0.90;;;;;;;;;;5048735;28;20016;-78
2022/07/28 10:42:20;;;;;;;3.47;1.23;;;;;;;;;;5065940;28;20028;-78
2022/07/28 10:44:46;;;;;;;3.88;0.80;;;;;;;;;;5058364;28;20059;-78
2022/07/28 10:47:11;;;;;;;6.28;1.17;;;;;;;;;;5067716;28;20085;-78
2022/07/28 10:49:38;;;;;;;6.18;1.40;;;;;;;;;;5041304;28;20060;-78
2022/07/28 10:52:04;;;;;;;6.25;1.20;;;;;;;;;;5025006;28;20028;-78
2022/07/28 10:54:33;;;;;;;3.53;1.10;;;;;;;;;;5057727;28;20024;-78
2022/07/28 10:56:59;;;;;;;4.00;0.90;;;;;;;;;;5058203;28;20443;-79
2022/07/28 10:59:44;;;;;;;3.25;1.08;;;;;;;;;;5005845;28;20041;-78
2022/07/28 11:02:49;;;;;;;3.72;1.13;;;;;;;;;;5027517;28;20431;-78
2022/07/28 11:05:35;;;;;;;5.00;0.73;;;;;;;;;;5066386;28;20083;-78
2022/07/28 11:08:08;;;;;;;7.30;1.00;;;;;;;;;;5039868;28;20035;-77
2022/07/28 11:10:48;;;;;;;5.20;0.82;;;;;;;;;;5060347;28;20495;-77
2022/07/28 11:13:35;;;;;;;2.33;0.95;;;;;;;;;;5046207;28;20028;-78
2022/07/28 11:16:12;;;;;;;4.50;1.00;;;;;;;;;;5011066;28;20122;-78
2022/07/28 11:19:09;;;;;;;6.18;1.15;;;;;;;;;;5040262;28;20028;-78
2022/07/28 11:21:34;;;;;;;3.85;0.90;;;;;;;;;;5005306;28;20026;-78
2022/07/28 11:24:00;;;;;;;3.15;0.77;;;;;;;;;;5037408;28;20033;-78
2022/07/28 11:26:27;;;;;;;2.58;0.80;;;;;;;;;;5052522;28;20028;-78
2022/07/28 11:28:58;;;;;;;4.93;1.02;;;;;;;;;;5057079;28;20032;-78
2022/07/28 11:31:42;;;;;;;2.20;0.82;;;;;;;;;;5043719;28;20028;-78
2022/07/28 11:34:08;;;;;;;4.35;0.93;;;;;;;;;;5038955;28;20431;-78
2022/07/28 11:37:00;;;;;;;3.08;1.02;;;;;;;;;;5022940;28;20121;-78
2022/07/28 11:39:29;;;;;;;3.28;0.80;;;;;;;;;;5065923;28;20408;-77
2022/07/28 11:41:55;;;;;;;1.92;0.75;;;;;;;;;;5027903;28;20025;-78
2022/07/28 11:44:27;;;;;;;2.25;0.80;;;;;;;;;;5025542;28;20052;-78
2022/07/28 11:46:52;;;;;;;5.93;1.30;;;;;;;;;;5028033;28;20025;-78
2022/07/28 11:49:19;;;;;;;2.95;1.17;;;;;;;;;;5045255;28;20141;-78
2022/07/28 11:52:08;;;;;;;6.40;1.00;;;;;;;;;;5014532;28;20040;-78
2022/07/28 11:54:34;;;;;;;4.90;1.10;;;;;;;;;;5044654;28;20524;-78
2022/07/28 11:57:03;;;;;;;2.35;0.80;;;;;;;;;;5056532;28;20013;-78
2022/07/28 11:59:39;;;;;;;2.60;0.90;;;;;;;;;;5029181;28;20017;-78
2022/07/28 12:02:05;;;;;;;5.47;0.85;;;;;;;;;;5005639;28;20040;-78
2022/07/28 12:04:30;;;;;;;6.78;1.33;;;;;;;;;;5024249;28;20033;-78
2022/07/28 12:06:55;;;;;;;5.32;1.08;;;;;;;;;;5048992;28;20488;-78
2022/07/28 12:09:32;;;;;;;2.35;0.75;;;;;;;;;;5066285;28;20040;-78
2022/07/28 12:11:57;;;;;;;7.32;1.52;;;;;;;;;;5050421;28;20052;-78
2022/07/28 12:14:24;;;;;;;2.35;0.70;;;;;;;;;;5052028;28;20194;-78
2022/07/28 12:16:50;;;;;;;4.18;1.00;;;;;;;;;;5040388;28;20511;-78
2022/07/28 12:19:16;;;;;;;1.92;0.63;;;;;;;;;;5057509;28;20032;-78
2022/07/28 12:21:52;;;;;;;5.15;1.13;;;;;;;;;;5025392;28;20029;-78
2022/07/28 12:24:26;;;;;;;3.92;1.13;;;;;;;;;;5000070;28;20041;-78
2022/07/28 12:26:52;;;;;;;3.97;1.00;;;;;;;;;;5035654;28;20028;-78
2022/07/28 12:29:18;;;;;;;4.57;1.25;;;;;;;;;;5068088;28;20067;-78
2022/07/28 12:31:54;;;;;;;5.18;1.20;;;;;;;;;;5065667;28;20078;-78
2022/07/28 12:34:20;;;;;;;3.58;0.80;;;;;;;;;;5014854;28;20031;-78
2022/07/28 12:36:45;;;;;;;7.50;1.33;;;;;;;;;;5032003;28;20024;-78
2022/07/28 12:39:10;;;;;;;4.05;0.82;;;;;;;;;;5064004;28;20052;-78
2022/07/28 12:41:37;;;;;;;2.40;0.68;;;;;;;;;;5042280;28;20499;-78
2022/07/28 12:44:03;;;;;;;6.68;1.08;;;;;;;;;;5022755;28;20024;-78
2022/07/28 12:46:29;;;;;;;5.57;1.10;;;;;;;;;;5050862;28;20027;-78
2022/07/28 12:48:55;;;;;;;5.05;1.17;;;;;;;;;;5059347;28;20028;-78
2022/07/28 12:51:37;;;;;;;3.80;0.90;;;;;;;;;;5031828;28;20032;-78
2022/07/28 12:54:04;;;;;;;3.38;0.70;;;;;;;;;;5051237;28;20058;-78
2022/07/28 12:56:29;;;;;;;4.38;1.02;;;;;;;;;;5016842;28;20132;-78
2022/07/28 12:59:07;;;;;;;4.38;0.85;;;;;;;;;;5006409;28;20393;-78
2022/07/28 13:01:44;;;;;;;4.88;1.23;;;;;;;;;;5051677;28;20094;-78
2022/07/28 13:04:10;;;;;;;3.90;1.00;;;;;;;;;;5068692;28;20549;-78
2022/07/28 13:06:35;;;;;;;4.38;1.02;;;;;;;;;;5068160;28;20024;-79
2022/07/28 13:09:01;;;;;;;9.02;1.15;;;;;;;;;;5041815;28;20039;-78
2022/07/28 13:11:30;;;;;;;4.57;1.20;;;;;;;;;;5030810;28;20457;-77
2022/07/28 13:13:55;;;;;;;5.93;1.30;;;;;;;;;;5015800;28;20021;-77
2022/07/28 13:16:22;;;;;;;4.20;1.00;;;;;;;;;;5048269;28;20424;-78
2022/07/28 13:18:50;;;;;;;1.88;0.60;;;;;;;;;;5040967;28;20037;-78
2022/07/28 13:21:36;;;;;;;4.32;0.95;;;;;;;;;;5042989;28;20024;-78
2022/07/28 13:24:02;;;;;;;4.20;1.17;;;;;;;;;;5016400;28;20029;-78
2022/07/28 13:26:27;;;;;;;3.15;1.05;;;;;;;;;;5012184;28;20031;-79
2022/07/28 13:29:02;;;;;;;6.88;1.05;;;;;;;;;;5051813;28;20409;-78
2022/07/28 13:31:30;;;;;;;5.40;1.33;;;;;;;;;;5037716;28;20094;-78
2022/07/28 13:33:56;;;;;;;4.75;0.90;;;;;;;;;;5046980;28;20515;-77
2022/07/28 13:36:21;;;;;;;5.03;1.20;;;;;;;;;;5045298;28;20021;-78
2022/07/28 13:38:46;;;;;;;3.90;0.90;;;;;;;;;;5055977;28;20175;-78
2022/07/28 13:41:12;;;;;;;3.72;0.90;;;;;;;;;;5056604;28;20048;-78
2022/07/28 13:43:37;;;;;;;3.40;1.08;;;;;;;;;;5010893;28;20478;-78
2022/07/28 13:46:02;;;;;;;4.28;0.98;;;;;;;;;;5049681;28;20174;-78
2022/07/28 13:48:28;;;;;;;7.35;1.20;;;;;;;;;;5055665;28;20166;-77
2022/07/28 13:50:53;;;;;;;2.08;0.80;;;;;;;;;;5043730;28;20366;-77
2022/07/28 13:53:19;;;;;;;5.35;1.00;;;;;;;;;;5046169;28;20036;-78
2022/07/28 13:55:44;;;;;;;6.13;0.90;;;;;;;;;;5024281;28;20052;-77
2022/07/28 13:58:09;;;;;;;5.82;1.10;;;;;;;;;;5046801;28;20112;-78
2022/07/28 14:00:35;;;;;;;7.22;1.10;;;;;;;;;;5031536;28;20126;-78
2022/07/28 14:03:02;;;;;;;4.13;1.00;;;;;;;;;;5032264;28;20032;-77
2022/07/28 14:05:28;;;;;;;4.35;0.60;;;;;;;;;;5038068;28;20044;-77
2022/07/28 14:07:53;;;;;;;7.95;1.15;;;;;;;;;;5065219;28;20447;-77
2022/07/28 14:10:18;;;;;;;3.58;1.10;;;;;;;;;;5024922;28;20064;-78
2022/07/28 14:12:44;;;;;;;3.03;0.80;;;;;;;;;;5032634;28;20120;-78
2022/07/28 14:15:09;;;;;;;5.63;1.25;;;;;;;;;;5067532;28;20039;-77
2022/07/28 14:17:35;;;;;;;4.10;0.95;;;;;;;;;;5055147;28;20059;-78
2022/07/28 14:20:03;;;;;;;3.05;0.77;;;;;;;;;;5045157;28;20031;-78
2022/07/28 14:22:28;;;;;;;5.93;1.20;;;;;;;;;;5022747;28;20029;-77
2022/07/28 14:24:54;;;;;;;5.15;1.30;;;;;;;;;;5066559;28;20044;-78
2022/07/28 14:27:19;;;;;;;7.28;1.50;;;;;;;;;;5061329;28;20500;-78
2022/07/28 14:29:45;;;;;;;4.40;0.90;;;;;;;;;;5037208;28;20028;-77
2022/07/28 14:32:11;;;;;;;10.40;1.33;;;;;;;;;;5046710;28;20028;-78
2022/07/28 14:34:36;;;;;;;5.50;1.15;;;;;;;;;;5037974;28;20123;-77
2022/07/28 14:37:04;;;;;;;4.38;1.20;;;;;;;;;;5047376;28;20044;-77
2022/07/28 14:39:29;;;;;;;6.65;1.00;;;;;;;;;;5060365;28;20032;-77
2022/07/28 14:41:56;;;;;;;3.17;0.85;;;;;;;;;;5041121;28;20055;-77
2022/07/28 14:44:22;;;;;;;3.63;0.85;;;;;;;;;;5041722;28;20028;-78
2022/07/28 14:46:47;;;;;;;3.83;1.08;;;;;;;;;;5038711;28;20109;-77